sensor_id;sensor_type;location;lat;lon;timestamp;pressure;altitude;pressure_sealevel;temperature;humidity
13050;BME280;6591;51.446;5.404;2023-09-19T00:01:48;100495.34;;;20.71;53.16
13050;BME280;6591;51.446;5.404;2023-09-19T00:04:15;100487.50;;;20.68;53.56
13050;BME280;6591;51.446;5.404;2023-09-19T00:06:42;100484.13;;;20.66;53.34
13050;BME280;6591;51.446;5.404;2023-09-19T00:09:11;100489.94;;;20.61;53.31
13050;BME280;6591;51.446;5.404;2023-09-19T00:11:38;100490.94;;;20.60;53.37
13050;BME280;6591;51.446;5.404;2023-09-19T00:14:05;100489.34;;;20.58;53.24
13050;BME280;6591;51.446;5.404;2023-09-19T00:16:35;100504.69;;;20.57;53.11
13050;BME280;6591;51.446;5.404;2023-09-19T00:19:03;100504.00;;;20.55;53.20
13050;BME280;6591;51.446;5.404;2023-09-19T00:21:32;100501.56;;;20.52;53.56
13050;BME280;6591;51.446;5.404;2023-09-19T00:23:59;100513.50;;;20.50;53.69
13050;BME280;6591;51.446;5.404;2023-09-19T00:26:26;100507.38;;;20.48;53.58
13050;BME280;6591;51.446;5.404;2023-09-19T00:28:57;100511.06;;;20.47;53.84
13050;BME280;6591;51.446;5.404;2023-09-19T00:31:35;100525.59;;;20.46;53.37
13050;BME280;6591;51.446;5.404;2023-09-19T00:34:04;100523.00;;;20.44;53.61
13050;BME280;6591;51.446;5.404;2023-09-19T00:36:33;100533.09;;;20.42;53.57
13050;BME280;6591;51.446;5.404;2023-09-19T00:39:00;100522.28;;;20.42;53.38
13050;BME280;6591;51.446;5.404;2023-09-19T00:41:28;100532.53;;;20.39;53.62
13050;BME280;6591;51.446;5.404;2023-09-19T00:43:57;100529.09;;;20.37;53.39
13050;BME280;6591;51.446;5.404;2023-09-19T00:46:24;100532.81;;;20.36;53.58
13050;BME280;6591;51.446;5.404;2023-09-19T00:48:52;100533.06;;;20.33;53.70
13050;BME280;6591;51.446;5.404;2023-09-19T00:51:21;100539.44;;;20.32;53.67
13050;BME280;6591;51.446;5.404;2023-09-19T00:53:49;100542.28;;;20.30;53.85
13050;BME280;6591;51.446;5.404;2023-09-19T00:56:16;100534.31;;;20.28;53.49
13050;BME280;6591;51.446;5.404;2023-09-19T00:58:47;100547.94;;;20.27;53.49
13050;BME280;6591;51.446;5.404;2023-09-19T01:01:15;100556.03;;;20.27;53.69
13050;BME280;6591;51.446;5.404;2023-09-19T01:03:44;100561.41;;;20.27;53.63
13050;BME280;6591;51.446;5.404;2023-09-19T01:06:13;100558.03;;;20.25;53.51
13050;BME280;6591;51.446;5.404;2023-09-19T01:08:40;100561.53;;;20.25;53.69
13050;BME280;6591;51.446;5.404;2023-09-19T01:11:24;100568.50;;;20.18;53.57
13050;BME280;6591;51.446;5.404;2023-09-19T01:14:17;100572.19;;;20.17;53.38
13050;BME280;6591;51.446;5.404;2023-09-19T01:17:04;100572.47;;;20.14;53.33
13050;BME280;6591;51.446;5.404;2023-09-19T01:20:17;100576.56;;;20.09;53.53
13050;BME280;6591;51.446;5.404;2023-09-19T01:23:07;100578.41;;;20.08;53.44
13050;BME280;6591;51.446;5.404;2023-09-19T01:26:05;100573.44;;;20.04;53.46
13050;BME280;6591;51.446;5.404;2023-09-19T01:28:52;100585.88;;;20.05;53.51
13050;BME280;6591;51.446;5.404;2023-09-19T01:31:28;100580.38;;;20.06;53.42
13050;BME280;6591;51.446;5.404;2023-09-19T01:34:02;100584.78;;;20.07;53.15
13050;BME280;6591;51.446;5.404;2023-09-19T01:36:36;100583.19;;;20.05;53.00
13050;BME280;6591;51.446;5.404;2023-09-19T01:39:11;100585.75;;;20.06;53.49
13050;BME280;6591;51.446;5.404;2023-09-19T01:42:01;100592.44;;;20.02;53.31
13050;BME280;6591;51.446;5.404;2023-09-19T01:47:48;100585.59;;;19.98;53.29
13050;BME280;6591;51.446;5.404;2023-09-19T01:50:37;100587.31;;;19.99;53.50
13050;BME280;6591;51.446;5.404;2023-09-19T01:53:26;100589.16;;;19.99;53.45
13050;BME280;6591;51.446;5.404;2023-09-19T01:55:58;100588.00;;;20.01;53.17
13050;BME280;6591;51.446;5.404;2023-09-19T01:58:53;100582.06;;;19.98;53.33
13050;BME280;6591;51.446;5.404;2023-09-19T02:01:27;100581.63;;;20.02;52.59
13050;BME280;6591;51.446;5.404;2023-09-19T02:03:55;100587.03;;;20.02;53.24
13050;BME280;6591;51.446;5.404;2023-09-19T02:06:23;100580.91;;;20.00;53.38
13050;BME280;6591;51.446;5.404;2023-09-19T02:08:54;100585.44;;;20.00;53.27
13050;BME280;6591;51.446;5.404;2023-09-19T02:11:22;100578.22;;;20.00;52.82
13050;BME280;6591;51.446;5.404;2023-09-19T02:13:50;100582.75;;;20.00;52.85
13050;BME280;6591;51.446;5.404;2023-09-19T02:16:22;100590.00;;;19.99;52.85
13050;BME280;6591;51.446;5.404;2023-09-19T02:18:49;100588.31;;;19.98;52.84
13050;BME280;6591;51.446;5.404;2023-09-19T02:21:18;100585.00;;;19.95;52.76
13050;BME280;6591;51.446;5.404;2023-09-19T02:23:45;100585.84;;;19.95;52.70
13050;BME280;6591;51.446;5.404;2023-09-19T02:26:14;100577.34;;;19.90;52.62
13050;BME280;6591;51.446;5.404;2023-09-19T02:28:41;100593.50;;;19.90;52.44
13050;BME280;6591;51.446;5.404;2023-09-19T02:31:09;100585.69;;;19.87;52.27
13050;BME280;6591;51.446;5.404;2023-09-19T02:33:36;100585.94;;;19.84;52.58
13050;BME280;6591;51.446;5.404;2023-09-19T02:36:05;100596.16;;;19.80;52.29
13050;BME280;6591;51.446;5.404;2023-09-19T02:38:32;100589.22;;;19.78;52.39
13050;BME280;6591;51.446;5.404;2023-09-19T02:41:00;100596.56;;;19.76;52.37
13050;BME280;6591;51.446;5.404;2023-09-19T02:43:28;100597.81;;;19.72;52.34
13050;BME280;6591;51.446;5.404;2023-09-19T02:45:55;100602.47;;;19.70;52.10
13050;BME280;6591;51.446;5.404;2023-09-19T02:48:24;100595.53;;;19.67;52.27
13050;BME280;6591;51.446;5.404;2023-09-19T02:50:52;100601.19;;;19.64;52.12
13050;BME280;6591;51.446;5.404;2023-09-19T02:53:19;100594.22;;;19.62;52.36
13050;BME280;6591;51.446;5.404;2023-09-19T02:55:47;100595.91;;;19.63;52.06
13050;BME280;6591;51.446;5.404;2023-09-19T02:58:15;100605.00;;;19.62;52.04
13050;BME280;6591;51.446;5.404;2023-09-19T03:00:43;100601.47;;;19.61;52.32
13050;BME280;6591;51.446;5.404;2023-09-19T03:03:21;100609.66;;;19.60;52.36
13050;BME280;6591;51.446;5.404;2023-09-19T03:05:49;100600.03;;;19.57;52.11
13050;BME280;6591;51.446;5.404;2023-09-19T03:08:21;100609.09;;;19.56;52.31
13050;BME280;6591;51.446;5.404;2023-09-19T03:10:49;100608.47;;;19.53;52.27
13050;BME280;6591;51.446;5.404;2023-09-19T03:13:16;100607.66;;;19.52;52.48
13050;BME280;6591;51.446;5.404;2023-09-19T03:15:44;100605.19;;;19.49;52.42
13050;BME280;6591;51.446;5.404;2023-09-19T03:18:16;100607.03;;;19.49;52.12
13050;BME280;6591;51.446;5.404;2023-09-19T03:20:43;100604.47;;;19.47;52.22
13050;BME280;6591;51.446;5.404;2023-09-19T03:23:11;100608.88;;;19.48;52.60
13050;BME280;6591;51.446;5.404;2023-09-19T03:25:40;100603.66;;;19.47;52.55
13050;BME280;6591;51.446;5.404;2023-09-19T03:28:08;100606.19;;;19.48;52.46
13050;BME280;6591;51.446;5.404;2023-09-19T03:30:36;100603.38;;;19.50;52.55
13050;BME280;6591;51.446;5.404;2023-09-19T03:33:04;100608.75;;;19.50;52.38
13050;BME280;6591;51.446;5.404;2023-09-19T03:35:34;100608.75;;;19.50;52.28
13050;BME280;6591;51.446;5.404;2023-09-19T03:38:02;100609.72;;;19.49;52.21
13050;BME280;6591;51.446;5.404;2023-09-19T03:40:30;100612.19;;;19.52;52.43
13050;BME280;6591;51.446;5.404;2023-09-19T03:43:01;100610.47;;;19.51;52.25
13050;BME280;6591;51.446;5.404;2023-09-19T03:45:29;100612.19;;;19.52;52.33
13050;BME280;6591;51.446;5.404;2023-09-19T03:47:56;100607.78;;;19.51;52.41
13050;BME280;6591;51.446;5.404;2023-09-19T03:50:25;100613.16;;;19.51;52.31
13050;BME280;6591;51.446;5.404;2023-09-19T03:52:57;100602.38;;;19.51;52.52
13050;BME280;6591;51.446;5.404;2023-09-19T03:55:25;100593.16;;;19.53;52.36
13050;BME280;6591;51.446;5.404;2023-09-19T03:57:52;100600.41;;;19.53;52.78
13050;BME280;6591;51.446;5.404;2023-09-19T04:00:20;100598.44;;;19.55;52.64
13050;BME280;6591;51.446;5.404;2023-09-19T04:02:49;100594.75;;;19.56;52.43
13050;BME280;6591;51.446;5.404;2023-09-19T04:05:19;100592.06;;;19.56;52.41
13050;BME280;6591;51.446;5.404;2023-09-19T04:07:46;100593.78;;;19.57;52.52
13050;BME280;6591;51.446;5.404;2023-09-19T04:10:13;100600.84;;;19.58;52.79
13050;BME280;6591;51.446;5.404;2023-09-19T04:12:54;100599.16;;;19.57;52.64
13050;BME280;6591;51.446;5.404;2023-09-19T04:15:23;100597.91;;;19.61;52.66
13050;BME280;6591;51.446;5.404;2023-09-19T04:17:53;100592.53;;;19.61;52.42
13050;BME280;6591;51.446;5.404;2023-09-19T04:20:20;100587.00;;;19.62;52.56
13050;BME280;6591;51.446;5.404;2023-09-19T04:22:51;100595.78;;;19.64;52.71
13050;BME280;6591;51.446;5.404;2023-09-19T04:25:19;100592.41;;;19.62;52.44
13050;BME280;6591;51.446;5.404;2023-09-19T04:27:47;100612.81;;;19.65;52.50
13050;BME280;6591;51.446;5.404;2023-09-19T04:30:14;100617.22;;;19.66;52.61
13050;BME280;6591;51.446;5.404;2023-09-19T04:32:43;100618.78;;;19.68;52.75
13050;BME280;6591;51.446;5.404;2023-09-19T04:35:11;100627.59;;;19.70;52.84
13050;BME280;6591;51.446;5.404;2023-09-19T04:37:39;100629.03;;;19.74;52.74
13050;BME280;6591;51.446;5.404;2023-09-19T04:40:08;100643.09;;;19.78;52.58
13050;BME280;6591;51.446;5.404;2023-09-19T04:42:41;100649.66;;;19.85;52.91
13050;BME280;6591;51.446;5.404;2023-09-19T04:45:09;100649.13;;;19.91;52.91
13050;BME280;6591;51.446;5.404;2023-09-19T04:47:38;100647.84;;;19.95;52.97
13050;BME280;6591;51.446;5.404;2023-09-19T04:50:08;100650.03;;;20.01;52.98
13050;BME280;6591;51.446;5.404;2023-09-19T04:52:41;100654.75;;;20.09;52.98
13050;BME280;6591;51.446;5.404;2023-09-19T04:55:16;100665.13;;;20.13;52.89
13050;BME280;6591;51.446;5.404;2023-09-19T04:57:51;100663.00;;;20.17;52.77
13050;BME280;6591;51.446;5.404;2023-09-19T05:00:21;100677.78;;;20.22;52.39
13050;BME280;6591;51.446;5.404;2023-09-19T05:02:55;100668.72;;;20.23;52.56
13050;BME280;6591;51.446;5.404;2023-09-19T05:05:26;100672.84;;;20.27;52.59
13050;BME280;6591;51.446;5.404;2023-09-19T05:07:53;100671.84;;;20.28;52.01
13050;BME280;6591;51.446;5.404;2023-09-19T05:10:21;100671.84;;;20.28;52.11
13050;BME280;6591;51.446;5.404;2023-09-19T05:12:52;100668.44;;;20.26;52.50
13050;BME280;6591;51.446;5.404;2023-09-19T05:15:19;100674.69;;;20.27;52.24
13050;BME280;6591;51.446;5.404;2023-09-19T05:17:51;100675.81;;;20.24;52.25
13050;BME280;6591;51.446;5.404;2023-09-19T05:20:24;100667.72;;;20.24;52.35
13050;BME280;6591;51.446;5.404;2023-09-19T05:23:05;100673.38;;;20.21;52.43
13050;BME280;6591;51.446;5.404;2023-09-19T05:25:37;100682.31;;;20.22;52.33
13050;BME280;6591;51.446;5.404;2023-09-19T05:28:10;100685.03;;;20.22;52.51
13050;BME280;6591;51.446;5.404;2023-09-19T05:30:42;100683.47;;;20.19;52.20
13050;BME280;6591;51.446;5.404;2023-09-19T05:33:15;100673.66;;;20.18;52.56
13050;BME280;6591;51.446;5.404;2023-09-19T05:35:42;100677.34;;;20.17;52.45
13050;BME280;6591;51.446;5.404;2023-09-19T05:38:10;100689.84;;;20.18;52.47
13050;BME280;6591;51.446;5.404;2023-09-19T05:40:40;100686.28;;;20.18;52.58
13050;BME280;6591;51.446;5.404;2023-09-19T05:43:13;100684.56;;;20.17;52.43
13050;BME280;6591;51.446;5.404;2023-09-19T05:45:46;100694.25;;;20.19;52.61
13050;BME280;6591;51.446;5.404;2023-09-19T05:48:14;100693.53;;;20.17;52.53
13050;BME280;6591;51.446;5.404;2023-09-19T05:50:43;100688.13;;;20.17;52.43
13050;BME280;6591;51.446;5.404;2023-09-19T05:53:14;100694.81;;;20.23;52.59
13050;BME280;6591;51.446;5.404;2023-09-19T05:55:42;100692.25;;;20.21;52.81
13050;BME280;6591;51.446;5.404;2023-09-19T05:58:09;100681.22;;;20.24;52.51
13050;BME280;6591;51.446;5.404;2023-09-19T06:00:37;100677.78;;;20.22;52.69
13050;BME280;6591;51.446;5.404;2023-09-19T06:03:06;100676.06;;;20.21;52.64
13050;BME280;6591;51.446;5.404;2023-09-19T06:05:37;100683.06;;;20.24;52.62
13050;BME280;6591;51.446;5.404;2023-09-19T06:08:07;100681.91;;;20.26;52.64
13050;BME280;6591;51.446;5.404;2023-09-19T06:10:35;100686.31;;;20.27;52.69
13050;BME280;6591;51.446;5.404;2023-09-19T06:13:03;100686.19;;;20.29;53.04
13050;BME280;6591;51.446;5.404;2023-09-19T06:15:37;100678.97;;;20.29;52.88
13050;BME280;6591;51.446;5.404;2023-09-19T06:18:04;100685.81;;;20.34;52.78
13050;BME280;6591;51.446;5.404;2023-09-19T06:20:33;100690.06;;;20.36;53.05
13050;BME280;6591;51.446;5.404;2023-09-19T06:23:00;100686.13;;;20.40;52.88
13050;BME280;6591;51.446;5.404;2023-09-19T06:25:30;100695.78;;;20.43;53.16
13050;BME280;6591;51.446;5.404;2023-09-19T06:27:57;100694.69;;;20.45;53.13
13050;BME280;6591;51.446;5.404;2023-09-19T06:30:24;100695.25;;;20.49;53.20
13050;BME280;6591;51.446;5.404;2023-09-19T06:32:58;100698.66;;;20.51;53.30
13050;BME280;6591;51.446;5.404;2023-09-19T06:35:28;100711.47;;;20.58;53.16
13050;BME280;6591;51.446;5.404;2023-09-19T06:37:56;100714.75;;;20.62;53.10
13050;BME280;6591;51.446;5.404;2023-09-19T06:40:25;100717.03;;;20.66;53.35
13050;BME280;6591;51.446;5.404;2023-09-19T06:42:53;100711.22;;;20.71;52.96
13050;BME280;6591;51.446;5.404;2023-09-19T06:45:24;100717.31;;;20.73;53.04
13050;BME280;6591;51.446;5.404;2023-09-19T06:47:56;100715.06;;;20.78;53.37
13050;BME280;6591;51.446;5.404;2023-09-19T06:50:26;100720.91;;;20.83;52.96
13050;BME280;6591;51.446;5.404;2023-09-19T06:52:55;100721.50;;;20.87;53.11
13050;BME280;6591;51.446;5.404;2023-09-19T06:55:26;100723.66;;;20.93;53.39
13050;BME280;6591;51.446;5.404;2023-09-19T06:58:00;100717.53;;;21.00;53.02
13050;BME280;6591;51.446;5.404;2023-09-19T07:00:29;100716.97;;;21.06;52.93
13050;BME280;6591;51.446;5.404;2023-09-19T07:05:29;100716.59;;;21.21;52.92
13050;BME280;6591;51.446;5.404;2023-09-19T07:07:59;100717.63;;;21.29;53.08
13050;BME280;6591;51.446;5.404;2023-09-19T07:10:29;100721.31;;;21.38;53.37
13050;BME280;6591;51.446;5.404;2023-09-19T07:13:03;100710.78;;;21.44;52.95
13050;BME280;6591;51.446;5.404;2023-09-19T07:15:33;100717.19;;;21.53;53.01
13050;BME280;6591;51.446;5.404;2023-09-19T07:18:03;100718.47;;;21.59;52.97
13050;BME280;6591;51.446;5.404;2023-09-19T07:20:31;100717.75;;;21.66;52.77
13050;BME280;6591;51.446;5.404;2023-09-19T07:22:59;100715.16;;;21.74;52.81
13050;BME280;6591;51.446;5.404;2023-09-19T07:25:30;100720.88;;;21.81;53.09
13050;BME280;6591;51.446;5.404;2023-09-19T07:27:58;100725.53;;;21.88;52.83
13050;BME280;6591;51.446;5.404;2023-09-19T07:30:29;100712.19;;;21.96;52.87
13050;BME280;6591;51.446;5.404;2023-09-19T07:32:56;100717.00;;;22.03;52.81
13050;BME280;6591;51.446;5.404;2023-09-19T07:35:24;100713.00;;;22.07;52.33
13050;BME280;6591;51.446;5.404;2023-09-19T07:37:53;100711.56;;;22.12;52.22
13050;BME280;6591;51.446;5.404;2023-09-19T07:40:20;100712.13;;;22.16;52.57
13050;BME280;6591;51.446;5.404;2023-09-19T07:42:48;100709.56;;;22.24;52.36
13050;BME280;6591;51.446;5.404;2023-09-19T07:45:16;100711.50;;;22.31;52.58
13050;BME280;6591;51.446;5.404;2023-09-19T07:47:47;100716.00;;;22.40;52.10
13050;BME280;6591;51.446;5.404;2023-09-19T07:50:19;100719.69;;;22.49;52.04
13050;BME280;6591;51.446;5.404;2023-09-19T07:52:48;100715.22;;;22.58;52.27
13050;BME280;6591;51.446;5.404;2023-09-19T07:55:18;100725.00;;;22.68;52.05
13050;BME280;6591;51.446;5.404;2023-09-19T07:57:47;100722.47;;;22.76;51.57
13050;BME280;6591;51.446;5.404;2023-09-19T08:00:15;100723.25;;;22.87;51.66
13050;BME280;6591;51.446;5.404;2023-09-19T08:02:43;100732.44;;;22.94;51.42
13050;BME280;6591;51.446;5.404;2023-09-19T08:05:13;100723.44;;;23.03;51.38
13050;BME280;6591;51.446;5.404;2023-09-19T08:07:46;100728.06;;;23.10;51.30
13050;BME280;6591;51.446;5.404;2023-09-19T08:10:16;100734.75;;;23.16;51.22
13050;BME280;6591;51.446;5.404;2023-09-19T08:12:48;100727.84;;;23.21;51.52
13050;BME280;6591;51.446;5.404;2023-09-19T08:15:20;100730.97;;;23.27;51.44
13050;BME280;6591;51.446;5.404;2023-09-19T08:17:48;100742.56;;;23.37;51.27
13050;BME280;6591;51.446;5.404;2023-09-19T08:20:16;100731.13;;;23.43;51.38
13050;BME280;6591;51.446;5.404;2023-09-19T08:22:53;100724.94;;;23.50;51.13
13050;BME280;6591;51.446;5.404;2023-09-19T08:25:24;100727.41;;;23.61;50.90
13050;BME280;6591;51.446;5.404;2023-09-19T08:27:56;100718.66;;;23.68;50.70
13050;BME280;6591;51.446;5.404;2023-09-19T08:30:25;100724.84;;;23.78;50.68
13050;BME280;6591;51.446;5.404;2023-09-19T08:33:01;100735.91;;;23.84;50.33
13050;BME280;6591;51.446;5.404;2023-09-19T08:35:46;100738.38;;;23.95;50.49
13050;BME280;6591;51.446;5.404;2023-09-19T08:38:13;100727.56;;;24.03;50.23
13050;BME280;6591;51.446;5.404;2023-09-19T08:40:41;100728.78;;;24.09;49.87
13050;BME280;6591;51.446;5.404;2023-09-19T08:43:09;100729.88;;;24.16;49.93
13050;BME280;6591;51.446;5.404;2023-09-19T08:45:37;100725.84;;;24.20;49.75
13050;BME280;6591;51.446;5.404;2023-09-19T08:48:27;100729.88;;;24.16;49.43
13050;BME280;6591;51.446;5.404;2023-09-19T08:51:05;100724.84;;;24.21;49.47
13050;BME280;6591;51.446;5.404;2023-09-19T08:54:03;100727.41;;;24.23;49.35
13050;BME280;6591;51.446;5.404;2023-09-19T08:56:33;100730.50;;;24.28;49.29
13050;BME280;6591;51.446;5.404;2023-09-19T08:59:03;100736.59;;;24.30;49.24
13050;BME280;6591;51.446;5.404;2023-09-19T09:01:53;100726.28;;;24.33;49.19
13050;BME280;6591;51.446;5.404;2023-09-19T09:04:22;100723.56;;;24.33;49.33
13050;BME280;6591;51.446;5.404;2023-09-19T09:06:53;100727.66;;;24.37;49.15
13050;BME280;6591;51.446;5.404;2023-09-19T09:09:22;100735.84;;;24.45;48.87
13050;BME280;6591;51.446;5.404;2023-09-19T09:11:49;100725.53;;;24.49;48.80
13050;BME280;6591;51.446;5.404;2023-09-19T09:14:21;100729.97;;;24.58;48.88
13050;BME280;6591;51.446;5.404;2023-09-19T09:16:48;100720.69;;;24.69;48.92
13050;BME280;6591;51.446;5.404;2023-09-19T09:19:16;100713.09;;;24.80;48.79
13050;BME280;6591;51.446;5.404;2023-09-19T09:21:51;100730.66;;;24.94;48.13
13050;BME280;6591;51.446;5.404;2023-09-19T09:24:29;100723.56;;;25.01;48.12
13050;BME280;6591;51.446;5.404;2023-09-19T09:26:57;100715.59;;;25.16;48.48
13050;BME280;6591;51.446;5.404;2023-09-19T09:29:43;100726.47;;;25.24;47.43
13050;BME280;6591;51.446;5.404;2023-09-19T09:34:56;100718.38;;;25.48;47.43
13050;BME280;6591;51.446;5.404;2023-09-19T09:37:28;100720.75;;;25.59;47.16
13050;BME280;6591;51.446;5.404;2023-09-19T09:40:02;100708.19;;;25.66;46.33
13050;BME280;6591;51.446;5.404;2023-09-19T09:42:42;100719.09;;;25.75;46.64
13050;BME280;6591;51.446;5.404;2023-09-19T09:45:21;100718.22;;;25.82;46.41
13050;BME280;6591;51.446;5.404;2023-09-19T09:48:01;100707.00;;;25.93;46.64
13050;BME280;6591;51.446;5.404;2023-09-19T09:50:52;100701.34;;;26.03;46.63
13050;BME280;6591;51.446;5.404;2023-09-19T09:53:29;100703.72;;;26.14;46.04
13050;BME280;6591;51.446;5.404;2023-09-19T09:58:36;100704.19;;;26.34;45.47
13050;BME280;6591;51.446;5.404;2023-09-19T10:01:04;100715.75;;;26.44;44.78
13050;BME280;6591;51.446;5.404;2023-09-19T10:03:43;100713.69;;;26.46;44.93
13050;BME280;6591;51.446;5.404;2023-09-19T10:06:16;100706.22;;;26.48;44.81
13050;BME280;6591;51.446;5.404;2023-09-19T10:09:07;100705.53;;;26.46;44.29
13050;BME280;6591;51.446;5.404;2023-09-19T10:12:05;100699.06;;;26.47;45.09
13050;BME280;6591;51.446;5.404;2023-09-19T10:14:37;100692.56;;;26.56;44.50
13050;BME280;6591;51.446;5.404;2023-09-19T10:17:05;100715.53;;;26.62;44.58
13050;BME280;6591;51.446;5.404;2023-09-19T10:19:42;100688.63;;;26.59;43.86
13050;BME280;6591;51.446;5.404;2023-09-19T10:22:17;100699.72;;;26.57;43.67
13050;BME280;6591;51.446;5.404;2023-09-19T10:24:50;100696.97;;;26.57;43.84
13050;BME280;6591;51.446;5.404;2023-09-19T10:27:26;100693.56;;;26.55;43.85
13050;BME280;6591;51.446;5.404;2023-09-19T10:29:55;100701.41;;;26.58;43.80
13050;BME280;6591;51.446;5.404;2023-09-19T10:32:29;100694.09;;;26.59;43.08
13050;BME280;6591;51.446;5.404;2023-09-19T10:35:06;100693.88;;;26.60;43.81
13050;BME280;6591;51.446;5.404;2023-09-19T10:37:35;100704.41;;;26.71;43.69
13050;BME280;6591;51.446;5.404;2023-09-19T10:40:08;100701.28;;;26.82;43.18
13050;BME280;6591;51.446;5.404;2023-09-19T10:42:39;100703.66;;;26.93;43.28
13050;BME280;6591;51.446;5.404;2023-09-19T10:45:10;100685.19;;;27.04;43.22
13050;BME280;6591;51.446;5.404;2023-09-19T10:47:40;100699.44;;;27.14;42.94
13050;BME280;6591;51.446;5.404;2023-09-19T10:50:09;100693.41;;;27.26;42.63
13050;BME280;6591;51.446;5.404;2023-09-19T10:52:41;100682.25;;;27.36;42.36
13050;BME280;6591;51.446;5.404;2023-09-19T10:55:16;100681.81;;;27.47;42.61
13050;BME280;6591;51.446;5.404;2023-09-19T10:57:47;100695.16;;;27.65;42.10
13050;BME280;6591;51.446;5.404;2023-09-19T11:00:15;100687.56;;;27.75;41.63
13050;BME280;6591;51.446;5.404;2023-09-19T11:05:40;100674.44;;;27.93;42.14
13050;BME280;6591;51.446;5.404;2023-09-19T11:08:09;100662.84;;;28.06;41.88
13050;BME280;6591;51.446;5.404;2023-09-19T11:10:49;100667.03;;;28.16;41.35
13050;BME280;6591;51.446;5.404;2023-09-19T11:13:29;100649.72;;;28.24;41.18
13050;BME280;6591;51.446;5.404;2023-09-19T11:16:05;100654.69;;;28.35;41.02
13050;BME280;6591;51.446;5.404;2023-09-19T11:27:10;100648.97;;;28.30;39.71
13050;BME280;6591;51.446;5.404;2023-09-19T11:29:40;100655.53;;;28.36;39.39
13050;BME280;6591;51.446;5.404;2023-09-19T11:32:08;100648.19;;;28.36;38.77
13050;BME280;6591;51.446;5.404;2023-09-19T11:40:09;100633.31;;;28.24;39.65
13050;BME280;6591;51.446;5.404;2023-09-19T11:42:48;100610.97;;;28.35;39.42
13050;BME280;6591;51.446;5.404;2023-09-19T11:48:18;100620.38;;;28.47;38.45
13050;BME280;6591;51.446;5.404;2023-09-19T11:50:46;100612.94;;;28.56;39.06
13050;BME280;6591;51.446;5.404;2023-09-19T11:53:14;100627.97;;;28.67;38.95
13050;BME280;6591;51.446;5.404;2023-09-19T11:55:43;100628.56;;;28.77;38.75
13050;BME280;6591;51.446;5.404;2023-09-19T11:58:15;100603.44;;;28.88;38.17
13050;BME280;6591;51.446;5.404;2023-09-19T12:00:45;100609.44;;;28.98;38.25
13050;BME280;6591;51.446;5.404;2023-09-19T12:03:13;100599.13;;;29.00;37.79
13050;BME280;6591;51.446;5.404;2023-09-19T12:05:46;100594.06;;;28.97;38.08
13050;BME280;6591;51.446;5.404;2023-09-19T12:08:15;100594.06;;;28.97;37.71
13050;BME280;6591;51.446;5.404;2023-09-19T12:10:51;100616.34;;;28.94;37.91
13050;BME280;6591;51.446;5.404;2023-09-19T12:13:21;100605.41;;;28.94;37.75
13050;BME280;6591;51.446;5.404;2023-09-19T12:15:48;100619.72;;;28.96;38.00
13050;BME280;6591;51.446;5.404;2023-09-19T12:18:29;100600.56;;;28.96;37.35
13050;BME280;6591;51.446;5.404;2023-09-19T12:20:58;100598.75;;;29.03;37.25
13050;BME280;6591;51.446;5.404;2023-09-19T12:23:25;100607.81;;;29.03;37.11
13050;BME280;6591;51.446;5.404;2023-09-19T12:25:54;100612.69;;;29.08;37.48
13050;BME280;6591;51.446;5.404;2023-09-19T12:28:30;100612.94;;;29.13;37.82
13050;BME280;6591;51.446;5.404;2023-09-19T12:31:07;100619.53;;;29.19;37.15
13050;BME280;6591;51.446;5.404;2023-09-19T12:33:35;100615.75;;;29.20;37.26
13050;BME280;6591;51.446;5.404;2023-09-19T12:36:24;100621.28;;;29.05;36.73
13050;BME280;6591;51.446;5.404;2023-09-19T12:38:58;100636.78;;;28.98;36.85
13050;BME280;6591;51.446;5.404;2023-09-19T12:41:27;100635.59;;;28.86;37.27
13050;BME280;6591;51.446;5.404;2023-09-19T12:43:54;100638.19;;;28.73;37.34
13050;BME280;6591;51.446;5.404;2023-09-19T12:46:22;100622.44;;;28.60;37.41
13050;BME280;6591;51.446;5.404;2023-09-19T12:49:18;100617.75;;;28.39;37.17
13050;BME280;6591;51.446;5.404;2023-09-19T12:51:54;100615.13;;;28.31;37.98
13050;BME280;6591;51.446;5.404;2023-09-19T12:54:22;100610.72;;;28.30;38.08
13050;BME280;6591;51.446;5.404;2023-09-19T12:56:51;100611.34;;;28.32;38.49
13050;BME280;6591;51.446;5.404;2023-09-19T12:59:29;100613.72;;;28.35;37.98
13050;BME280;6591;51.446;5.404;2023-09-19T13:02:05;100602.66;;;28.43;38.22
13050;BME280;6591;51.446;5.404;2023-09-19T13:04:40;100612.94;;;28.56;38.54
13050;BME280;6591;51.446;5.404;2023-09-19T13:07:40;100619.28;;;28.63;38.12
13050;BME280;6591;51.446;5.404;2023-09-19T13:10:11;100605.66;;;28.78;37.69
13050;BME280;6591;51.446;5.404;2023-09-19T13:12:44;100588.84;;;28.81;37.85
13050;BME280;6591;51.446;5.404;2023-09-19T13:15:15;100599.00;;;28.87;37.49
13050;BME280;6591;51.446;5.404;2023-09-19T13:17:48;100621.59;;;28.95;38.19
13050;BME280;6591;51.446;5.404;2023-09-19T13:20:24;100626.69;;;28.98;37.76
13050;BME280;6591;51.446;5.404;2023-09-19T13:22:57;100610.91;;;29.00;37.84
13050;BME280;6591;51.446;5.404;2023-09-19T13:25:33;100614.97;;;29.04;36.87
13050;BME280;6591;51.446;5.404;2023-09-19T13:28:04;100625.66;;;28.99;36.98
13050;BME280;6591;51.446;5.404;2023-09-19T13:30:32;100610.88;;;28.94;37.20
13050;BME280;6591;51.446;5.404;2023-09-19T13:33:10;100619.59;;;28.83;37.13
13050;BME280;6591;51.446;5.404;2023-09-19T13:35:41;100630.31;;;28.70;37.09
13050;BME280;6591;51.446;5.404;2023-09-19T13:38:08;100618.84;;;28.59;36.91
13050;BME280;6591;51.446;5.404;2023-09-19T13:40:40;100615.75;;;28.48;37.28
13050;BME280;6591;51.446;5.404;2023-09-19T13:43:09;100614.84;;;28.41;37.19
13050;BME280;6591;51.446;5.404;2023-09-19T13:45:38;100622.28;;;28.32;37.07
13050;BME280;6591;51.446;5.404;2023-09-19T13:48:05;100631.91;;;28.28;37.36
13050;BME280;6591;51.446;5.404;2023-09-19T13:50:34;100615.13;;;28.16;37.13
13050;BME280;6591;51.446;5.404;2023-09-19T13:53:02;100624.25;;;28.09;37.64
13050;BME280;6591;51.446;5.404;2023-09-19T13:55:30;100635.25;;;28.01;37.67